Disclaimer

Please do not use the information listed here in-flight or in-navigation, as they are not provided to us by the airports but are provided by volunteers, so they might be outdated.

Search


Regions


Airport information page

Radio informations:
Tower (TWR) - 118.4 MHz
Ground (GND) - 121.8 MHz
Automatic Terminal Information Service (ATIS) - 126.8 MHz
RADAR - 121.2 MHz
Approach (APP) - 121.2 MHz

Airport informations:
Latitude: 23° 35' 35.80" N
Longitude: 058° 17' 04.00" E
Elevation: 48 feet - 15 meters
Operating hours: 24 hour operations
Operating agency: Military-civil joint use airport
Timezone: UTC+4
Fuel: Jet A1, without icing nhibitor.

100/130 MIL Spec, low lead, aviation gasoline (BLUE)

Runway information:
02/20 - 2461 x 98 feet< - >750 x 30 meters
08/26 - 11775 x 148 feet< - >3589 x 45 meters

Recent METARs:
OOMS 151150Z 06014KT 6000 HZ NSC 29/20 Q1014 NOSIG
OOMS 151150Z 06014KT 6000 HZ NSC 29/20 Q1014 NOSIG
OOMS 151250Z 06012KT 6000 HZ NSC 29/19 Q1014 NOSIG

Airport on the map: